Time;durP1;ratioP1;P1;durP2;ratioP2;P2;SDS_P1;SDS_P2;PMS_P1;PMS_P2;Temp;Humidity;BMP_temperature;BMP_pressure;BME280_temperature;BME280_humidity;BME280_pressure;Samples;Min_cycle;Max_cycle;Signal;HPM_P1;HPM_P2
2022/03/01 00:00:11;;;;;;;16.58;8.32;;;;;;;;;;5102625;28;20493;-84
2022/03/01 00:02:38;;;;;;;13.43;6.70;;;;;;;;;;5099351;28;20071;-84
2022/03/01 00:05:05;;;;;;;15.32;7.35;;;;;;;;;;5099341;28;20052;-84
2022/03/01 00:07:32;;;;;;;14.80;6.68;;;;;;;;;;5105099;28;20106;-84
2022/03/01 00:09:58;;;;;;;12.85;5.90;;;;;;;;;;5105056;28;20184;-84
2022/03/01 00:12:25;;;;;;;16.00;8.00;;;;;;;;;;5107895;28;20470;-84
2022/03/01 00:14:53;;;;;;;17.42;6.78;;;;;;;;;;5107816;28;20081;-84
2022/03/01 00:17:20;;;;;;;15.75;7.13;;;;;;;;;;5099544;28;20518;-84
2022/03/01 00:19:46;;;;;;;19.83;9.27;;;;;;;;;;5100834;28;20554;-84
2022/03/01 00:22:13;;;;;;;14.73;7.32;;;;;;;;;;5109678;28;20107;-84
2022/03/01 00:24:40;;;;;;;15.73;6.63;;;;;;;;;;5104346;28;20981;-84
2022/03/01 00:27:06;;;;;;;15.90;6.68;;;;;;;;;;5098067;28;20071;-84
2022/03/01 00:29:33;;;;;;;16.63;7.60;;;;;;;;;;5106852;28;20120;-83
2022/03/01 00:32:01;;;;;;;18.80;8.18;;;;;;;;;;5104451;28;20162;-84
2022/03/01 00:34:27;;;;;;;18.77;7.60;;;;;;;;;;5105206;28;20460;-83
2022/03/01 00:36:54;;;;;;;17.17;7.20;;;;;;;;;;5097082;28;20048;-83
2022/03/01 00:39:23;;;;;;;16.42;7.72;;;;;;;;;;5106580;28;20052;-84
2022/03/01 00:41:50;;;;;;;15.52;7.05;;;;;;;;;;5102388;28;20047;-83
2022/03/01 00:44:17;;;;;;;15.77;6.85;;;;;;;;;;5101658;28;20070;-84
2022/03/01 00:46:43;;;;;;;14.73;7.47;;;;;;;;;;5099699;28;20048;-84
2022/03/01 00:49:11;;;;;;;15.00;8.07;;;;;;;;;;5108438;28;20075;-83
2022/03/01 00:51:38;;;;;;;17.75;7.82;;;;;;;;;;5096782;28;20044;-84
2022/03/01 00:54:05;;;;;;;15.70;7.85;;;;;;;;;;5105384;28;20463;-84
2022/03/01 00:56:31;;;;;;;15.07;7.82;;;;;;;;;;5099206;28;20044;-84
2022/03/01 00:58:58;;;;;;;15.90;7.80;;;;;;;;;;5106213;28;20044;-84
2022/03/01 01:01:25;;;;;;;18.65;7.55;;;;;;;;;;5099331;28;20424;-84
2022/03/01 01:03:51;;;;;;;17.00;7.13;;;;;;;;;;5103114;28;20067;-84
2022/03/01 01:06:19;;;;;;;15.93;6.30;;;;;;;;;;5095865;28;20101;-84
2022/03/01 01:08:46;;;;;;;15.15;6.85;;;;;;;;;;5113040;28;20077;-84
2022/03/01 01:11:12;;;;;;;14.63;7.25;;;;;;;;;;5102032;28;20555;-84
2022/03/01 01:13:39;;;;;;;22.35;8.38;;;;;;;;;;5106291;28;20120;-84
2022/03/01 01:16:06;;;;;;;17.70;7.15;;;;;;;;;;5106727;28;20094;-84
2022/03/01 01:18:33;;;;;;;14.68;7.10;;;;;;;;;;5100462;28;20547;-84
2022/03/01 01:20:59;;;;;;;18.45;7.82;;;;;;;;;;5100014;28;20047;-84
2022/03/01 01:23:27;;;;;;;16.10;7.57;;;;;;;;;;5101120;28;20518;-84
2022/03/01 01:25:54;;;;;;;15.20;7.40;;;;;;;;;;5102849;28;20047;-84
2022/03/01 01:28:20;;;;;;;14.43;6.95;;;;;;;;;;5104680;28;20085;-84
2022/03/01 01:30:47;;;;;;;14.73;7.28;;;;;;;;;;5102487;28;20078;-84
2022/03/01 01:33:13;;;;;;;16.42;7.18;;;;;;;;;;5100733;28;20118;-84
2022/03/01 01:35:40;;;;;;;15.57;7.00;;;;;;;;;;5108726;28;20075;-84
2022/03/01 01:38:07;;;;;;;16.38;6.63;;;;;;;;;;5105648;28;20040;-84
2022/03/01 01:40:35;;;;;;;16.95;7.53;;;;;;;;;;5100707;28;20120;-84
2022/03/01 01:43:03;;;;;;;18.58;8.25;;;;;;;;;;5102923;28;20062;-84
2022/03/01 01:45:30;;;;;;;13.65;7.45;;;;;;;;;;5100510;28;20106;-84
2022/03/01 01:47:58;;;;;;;14.43;7.40;;;;;;;;;;5098814;28;20076;-84
2022/03/01 01:50:25;;;;;;;15.40;7.72;;;;;;;;;;5107859;28;20086;-84
2022/03/01 01:52:53;;;;;;;16.05;6.70;;;;;;;;;;5098459;28;20479;-84
2022/03/01 01:55:20;;;;;;;15.35;7.28;;;;;;;;;;5110517;28;20048;-84
2022/03/01 01:57:49;;;;;;;15.23;7.43;;;;;;;;;;5100240;28;20650;-84
2022/03/01 02:00:19;;;;;;;16.08;7.20;;;;;;;;;;5096486;28;20089;-85
2022/03/01 02:02:46;;;;;;;13.73;6.20;;;;;;;;;;5102430;28;20316;-83
2022/03/01 02:05:13;;;;;;;16.17;7.43;;;;;;;;;;5106767;28;20035;-83
2022/03/01 02:07:46;;;;;;;14.63;6.28;;;;;;;;;;5110135;28;20490;-83
2022/03/01 02:10:12;;;;;;;16.42;6.68;;;;;;;;;;5110012;28;20088;-83
2022/03/01 02:12:39;;;;;;;15.68;6.47;;;;;;;;;;5107044;28;20074;-83
2022/03/01 02:15:18;;;;;;;11.68;5.63;;;;;;;;;;5100548;28;20440;-84
2022/03/01 02:17:45;;;;;;;14.25;6.78;;;;;;;;;;5106149;28;20079;-83
2022/03/01 02:20:18;;;;;;;14.40;6.95;;;;;;;;;;5105177;28;20044;-83
2022/03/01 02:22:45;;;;;;;12.75;5.88;;;;;;;;;;5102973;28;20051;-83
2022/03/01 02:25:12;;;;;;;14.30;6.10;;;;;;;;;;5109075;28;20051;-83
2022/03/01 02:27:39;;;;;;;13.40;6.22;;;;;;;;;;5107007;28;20048;-83
2022/03/01 02:30:07;;;;;;;17.30;6.90;;;;;;;;;;5097518;28;20105;-83
2022/03/01 02:32:34;;;;;;;14.05;6.55;;;;;;;;;;5105849;28;20058;-83
2022/03/01 02:35:02;;;;;;;15.75;6.38;;;;;;;;;;5108834;28;20086;-83
2022/03/01 02:37:30;;;;;;;15.90;6.28;;;;;;;;;;5108013;28;20750;-83
2022/03/01 02:39:57;;;;;;;16.27;6.63;;;;;;;;;;5106416;28;20039;-83
2022/03/01 02:42:27;;;;;;;13.60;5.50;;;;;;;;;;5111430;28;20120;-83
2022/03/01 02:44:54;;;;;;;16.27;6.75;;;;;;;;;;5105474;28;20051;-83
2022/03/01 02:47:20;;;;;;;12.15;5.65;;;;;;;;;;5098420;28;20044;-83
2022/03/01 02:49:47;;;;;;;16.08;5.82;;;;;;;;;;5105885;28;20104;-83
2022/03/01 02:52:13;;;;;;;13.60;6.43;;;;;;;;;;5103773;28;20456;-83
2022/03/01 02:54:41;;;;;;;18.48;7.07;;;;;;;;;;5101495;28;20475;-83
2022/03/01 02:57:08;;;;;;;15.45;7.47;;;;;;;;;;5106878;28;20517;-83
2022/03/01 02:59:35;;;;;;;15.68;7.20;;;;;;;;;;5104674;28;20051;-83
2022/03/01 03:02:01;;;;;;;15.05;6.22;;;;;;;;;;5110220;28;20044;-83
2022/03/01 03:04:28;;;;;;;13.55;6.53;;;;;;;;;;5098999;28;20097;-83
2022/03/01 03:06:55;;;;;;;13.40;6.68;;;;;;;;;;5104561;28;20101;-83
2022/03/01 03:09:22;;;;;;;13.45;6.22;;;;;;;;;;5102906;28;20043;-83
2022/03/01 03:11:50;;;;;;;15.68;7.13;;;;;;;;;;5103462;28;20081;-83
2022/03/01 03:14:17;;;;;;;14.43;6.05;;;;;;;;;;5101758;28;20032;-83
2022/03/01 03:16:43;;;;;;;14.88;5.55;;;;;;;;;;5103439;28;20048;-82
2022/03/01 03:19:15;;;;;;;12.07;5.97;;;;;;;;;;5100177;28;20054;-83
2022/03/01 03:21:42;;;;;;;10.05;5.47;;;;;;;;;;5106898;28;20459;-82
2022/03/01 03:24:08;;;;;;;11.57;5.75;;;;;;;;;;5106663;28;20044;-82
2022/03/01 03:26:35;;;;;;;16.80;7.22;;;;;;;;;;5107768;28;20077;-82
2022/03/01 03:29:03;;;;;;;9.93;5.00;;;;;;;;;;5100716;28;20055;-82
2022/03/01 03:31:30;;;;;;;14.95;6.22;;;;;;;;;;5104994;28;20048;-82
2022/03/01 03:33:57;;;;;;;14.85;7.32;;;;;;;;;;5102879;28;20486;-82
2022/03/01 03:36:23;;;;;;;18.80;7.72;;;;;;;;;;5102051;28;20055;-82
2022/03/01 03:39:13;;;;;;;16.40;7.20;;;;;;;;;;5102333;28;20786;-82
2022/03/01 03:41:40;;;;;;;16.48;7.45;;;;;;;;;;5084629;28;20071;-82
2022/03/01 03:44:09;;;;;;;14.50;6.07;;;;;;;;;;5080434;28;20080;-82
2022/03/01 03:46:35;;;;;;;14.10;6.45;;;;;;;;;;5082483;28;20060;-82
2022/03/01 03:49:03;;;;;;;15.60;7.18;;;;;;;;;;5083423;28;20089;-82
2022/03/01 03:51:30;;;;;;;15.00;6.88;;;;;;;;;;5083351;28;20090;-82
2022/03/01 03:53:56;;;;;;;14.68;6.20;;;;;;;;;;5084971;28;20036;-82
2022/03/01 03:56:24;;;;;;;16.40;7.53;;;;;;;;;;5084041;28;20093;-82
2022/03/01 03:58:51;;;;;;;23.75;10.05;;;;;;;;;;5082144;28;20052;-82
2022/03/01 04:01:19;;;;;;;24.73;9.18;;;;;;;;;;5078379;28;20049;-82
2022/03/01 04:03:46;;;;;;;19.55;8.18;;;;;;;;;;5084329;28;20765;-82
2022/03/01 04:06:12;;;;;;;15.02;7.57;;;;;;;;;;5084435;28;20131;-82
2022/03/01 04:08:39;;;;;;;16.13;6.95;;;;;;;;;;5079819;28;20414;-82
2022/03/01 04:11:06;;;;;;;16.02;7.28;;;;;;;;;;5083534;28;20576;-82
2022/03/01 04:13:33;;;;;;;15.45;6.80;;;;;;;;;;5088123;28;20189;-82
2022/03/01 04:15:59;;;;;;;19.35;7.97;;;;;;;;;;5086048;28;20448;-82
2022/03/01 04:18:27;;;;;;;16.98;7.47;;;;;;;;;;5085420;28;20056;-82
2022/03/01 04:20:54;;;;;;;14.18;6.65;;;;;;;;;;5085129;28;20048;-82
2022/03/01 04:23:21;;;;;;;12.13;5.75;;;;;;;;;;5093817;28;20098;-82
2022/03/01 04:25:47;;;;;;;15.13;6.45;;;;;;;;;;5082666;28;20542;-82
2022/03/01 04:28:14;;;;;;;14.65;6.57;;;;;;;;;;5089463;28;20052;-82
2022/03/01 04:30:40;;;;;;;11.80;6.05;;;;;;;;;;5084503;28;20048;-82
2022/03/01 04:33:07;;;;;;;17.58;7.93;;;;;;;;;;5089007;28;20628;-83
2022/03/01 04:35:35;;;;;;;16.23;7.43;;;;;;;;;;5078045;28;20067;-83
2022/03/01 04:38:02;;;;;;;16.55;6.55;;;;;;;;;;5079652;28;20049;-82
2022/03/01 04:40:32;;;;;;;16.73;7.10;;;;;;;;;;5093790;28;20056;-83
2022/03/01 04:42:58;;;;;;;15.60;7.10;;;;;;;;;;5106917;28;20165;-83
2022/03/01 04:45:25;;;;;;;16.50;6.82;;;;;;;;;;5102763;28;20052;-82
2022/03/01 04:47:52;;;;;;;18.85;7.20;;;;;;;;;;5097843;28;20086;-83
2022/03/01 04:50:18;;;;;;;17.13;6.90;;;;;;;;;;5105328;28;20079;-82
2022/03/01 04:52:46;;;;;;;17.48;8.27;;;;;;;;;;5103997;28;20052;-82
2022/03/01 04:55:14;;;;;;;17.55;7.78;;;;;;;;;;5100793;28;20036;-82
2022/03/01 04:57:40;;;;;;;17.23;7.15;;;;;;;;;;5105732;28;20067;-82
2022/03/01 05:00:10;;;;;;;18.27;6.72;;;;;;;;;;5103649;28;20079;-82
2022/03/01 05:02:38;;;;;;;14.90;7.75;;;;;;;;;;5103918;28;20047;-82
2022/03/01 05:05:10;;;;;;;17.13;7.22;;;;;;;;;;5105720;28;20055;-82
2022/03/01 05:07:37;;;;;;;15.80;7.18;;;;;;;;;;5117179;27;20054;-82
2022/03/01 05:10:07;;;;;;;14.55;6.70;;;;;;;;;;5109920;28;20073;-82
2022/03/01 05:12:34;;;;;;;13.68;5.68;;;;;;;;;;5107631;28;20060;-82
2022/03/01 05:15:02;;;;;;;13.07;6.70;;;;;;;;;;5102890;28;20120;-82
2022/03/01 05:17:29;;;;;;;17.15;7.03;;;;;;;;;;5109716;28;20082;-82
2022/03/01 05:19:56;;;;;;;12.30;6.05;;;;;;;;;;5109370;28;20067;-81
2022/03/01 05:22:22;;;;;;;17.02;7.85;;;;;;;;;;5109388;28;20040;-82
2022/03/01 05:24:49;;;;;;;16.55;7.47;;;;;;;;;;5109523;28;20040;-82
2022/03/01 05:27:17;;;;;;;20.40;8.93;;;;;;;;;;5109882;28;20051;-82
2022/03/01 05:29:43;;;;;;;21.52;10.00;;;;;;;;;;5112238;28;20097;-82
2022/03/01 05:32:11;;;;;;;19.05;8.80;;;;;;;;;;5103219;28;20048;-83
2022/03/01 05:34:43;;;;;;;17.00;7.82;;;;;;;;;;5105340;28;20044;-83
2022/03/01 05:37:09;;;;;;;14.60;7.70;;;;;;;;;;5107501;28;20410;-82
2022/03/01 05:39:39;;;;;;;17.40;7.25;;;;;;;;;;5106283;28;20052;-83
2022/03/01 05:42:09;;;;;;;16.98;7.43;;;;;;;;;;5110629;28;20043;-83
2022/03/01 05:44:38;;;;;;;18.58;7.50;;;;;;;;;;5106670;28;20074;-83
2022/03/01 05:47:16;;;;;;;18.65;7.68;;;;;;;;;;5110696;28;20052;-83
2022/03/01 05:50:10;;;;;;;18.95;7.80;;;;;;;;;;5103732;28;20051;-83
2022/03/01 05:52:38;;;;;;;18.52;9.02;;;;;;;;;;4983711;28;20055;-83
2022/03/01 05:55:06;;;;;;;13.00;7.07;;;;;;;;;;5101463;28;20040;-83
2022/03/01 05:57:33;;;;;;;29.10;10.20;;;;;;;;;;5109694;28;20090;-83
2022/03/01 06:00:10;;;;;;;16.25;8.57;;;;;;;;;;5108164;28;20059;-83
2022/03/01 06:02:37;;;;;;;16.23;7.38;;;;;;;;;;5097256;27;20048;-83
2022/03/01 06:05:04;;;;;;;21.98;8.73;;;;;;;;;;5106174;28;20048;-83
2022/03/01 06:07:31;;;;;;;24.17;11.25;;;;;;;;;;5099631;28;20054;-83
2022/03/01 06:09:57;;;;;;;27.52;11.15;;;;;;;;;;5111351;27;20058;-83
2022/03/01 06:12:24;;;;;;;19.45;8.85;;;;;;;;;;5118012;27;20040;-83
2022/03/01 06:14:51;;;;;;;15.68;7.63;;;;;;;;;;5106200;28;20177;-83
2022/03/01 06:17:18;;;;;;;12.30;6.22;;;;;;;;;;5100945;28;20051;-83
2022/03/01 06:19:45;;;;;;;13.48;5.50;;;;;;;;;;5099857;28;20044;-83
2022/03/01 06:22:13;;;;;;;11.15;5.97;;;;;;;;;;5107953;28;20043;-83
2022/03/01 06:24:41;;;;;;;12.57;5.05;;;;;;;;;;5100543;28;20044;-84
2022/03/01 06:27:07;;;;;;;10.60;4.93;;;;;;;;;;5103558;28;20066;-83
2022/03/01 06:29:34;;;;;;;11.57;5.53;;;;;;;;;;5102826;28;20135;-84
2022/03/01 06:32:01;;;;;;;14.10;4.88;;;;;;;;;;5099460;28;20075;-84
2022/03/01 06:34:30;;;;;;;12.02;5.45;;;;;;;;;;5100685;28;20055;-84
2022/03/01 06:36:57;;;;;;;11.13;4.85;;;;;;;;;;5102644;28;20082;-84
2022/03/01 06:39:23;;;;;;;10.40;4.75;;;;;;;;;;5107797;28;20096;-84
2022/03/01 06:41:57;;;;;;;13.75;5.78;;;;;;;;;;5099740;28;20095;-84
2022/03/01 06:44:23;;;;;;;11.50;5.57;;;;;;;;;;5097322;28;20071;-84
2022/03/01 06:46:50;;;;;;;12.48;5.15;;;;;;;;;;5101283;28;20070;-84
2022/03/01 06:49:16;;;;;;;10.88;4.63;;;;;;;;;;5106190;28;20052;-84
2022/03/01 06:51:44;;;;;;;12.52;5.15;;;;;;;;;;5107151;28;20077;-84
2022/03/01 06:54:11;;;;;;;11.45;4.95;;;;;;;;;;5105796;28;20328;-84
2022/03/01 06:56:37;;;;;;;11.40;5.07;;;;;;;;;;5114656;28;20104;-85
2022/03/01 06:59:04;;;;;;;12.63;5.97;;;;;;;;;;5109639;28;20064;-84
2022/03/01 07:01:30;;;;;;;11.63;4.78;;;;;;;;;;5106407;28;20047;-84
2022/03/01 07:03:57;;;;;;;11.48;5.35;;;;;;;;;;5097451;28;20071;-85
2022/03/01 07:06:23;;;;;;;11.38;5.55;;;;;;;;;;5101978;28;20059;-84
2022/03/01 07:08:51;;;;;;;11.40;5.50;;;;;;;;;;5105542;28;20047;-84
2022/03/01 07:11:19;;;;;;;14.25;5.35;;;;;;;;;;5100475;28;20119;-84
2022/03/01 07:13:46;;;;;;;10.48;5.18;;;;;;;;;;5108140;28;20053;-84
2022/03/01 07:16:12;;;;;;;13.48;6.07;;;;;;;;;;5100337;28;20063;-84
2022/03/01 07:18:42;;;;;;;11.82;5.20;;;;;;;;;;5108381;28;20070;-84
2022/03/01 07:21:09;;;;;;;10.57;5.63;;;;;;;;;;5104378;28;20047;-84
2022/03/01 07:23:35;;;;;;;9.20;4.07;;;;;;;;;;5098794;28;20071;-84
2022/03/01 07:26:04;;;;;;;12.27;5.03;;;;;;;;;;5096200;28;20044;-84
2022/03/01 07:28:31;;;;;;;17.75;5.57;;;;;;;;;;5098013;28;20113;-84
2022/03/01 07:30:58;;;;;;;10.95;5.32;;;;;;;;;;5101439;28;20666;-84
2022/03/01 07:33:24;;;;;;;11.77;5.03;;;;;;;;;;5106241;28;20078;-84
2022/03/01 07:35:51;;;;;;;11.68;4.78;;;;;;;;;;5112982;28;20047;-84
2022/03/01 07:38:18;;;;;;;12.30;5.50;;;;;;;;;;5103466;28;20098;-84
2022/03/01 07:40:44;;;;;;;9.98;5.68;;;;;;;;;;5100916;28;20051;-84
2022/03/01 07:43:12;;;;;;;10.77;5.05;;;;;;;;;;5106154;28;20067;-84
2022/03/01 07:45:39;;;;;;;13.18;5.05;;;;;;;;;;5101746;28;20108;-84
2022/03/01 07:48:06;;;;;;;9.32;4.57;;;;;;;;;;5105030;28;20116;-84
2022/03/01 07:50:34;;;;;;;9.48;4.80;;;;;;;;;;5107860;28;20044;-84
2022/03/01 07:53:01;;;;;;;8.43;3.88;;;;;;;;;;5106913;28;20678;-84
2022/03/01 07:55:29;;;;;;;10.15;5.25;;;;;;;;;;5100305;28;21462;-83
2022/03/01 07:57:56;;;;;;;10.90;5.15;;;;;;;;;;5111961;28;20051;-83
2022/03/01 08:00:25;;;;;;;12.95;4.90;;;;;;;;;;5107852;28;20056;-83
2022/03/01 08:02:52;;;;;;;11.30;5.15;;;;;;;;;;5111507;28;20043;-83
2022/03/01 08:05:18;;;;;;;7.72;4.47;;;;;;;;;;5101048;28;20076;-83
2022/03/01 08:07:45;;;;;;;10.20;5.32;;;;;;;;;;5113810;28;20069;-83
2022/03/01 08:10:12;;;;;;;12.10;5.03;;;;;;;;;;5109795;28;20044;-83
2022/03/01 08:12:38;;;;;;;11.93;5.15;;;;;;;;;;5101723;28;20075;-83
2022/03/01 08:15:06;;;;;;;9.52;5.03;;;;;;;;;;5117417;28;20043;-83
2022/03/01 08:17:34;;;;;;;12.10;5.15;;;;;;;;;;5113147;28;20063;-83
2022/03/01 08:20:00;;;;;;;10.27;4.43;;;;;;;;;;5114672;28;20213;-83
2022/03/01 08:22:27;;;;;;;9.70;5.82;;;;;;;;;;5110194;28;20040;-83
2022/03/01 08:24:54;;;;;;;10.52;5.43;;;;;;;;;;5114393;28;20493;-83
2022/03/01 08:27:20;;;;;;;12.30;5.57;;;;;;;;;;5109821;28;20459;-83
2022/03/01 08:29:47;;;;;;;9.15;4.88;;;;;;;;;;5113957;28;20052;-83
2022/03/01 08:32:13;;;;;;;11.15;5.47;;;;;;;;;;5114387;28;20044;-83
2022/03/01 08:34:41;;;;;;;9.32;4.82;;;;;;;;;;5109143;28;20112;-83
2022/03/01 08:37:08;;;;;;;10.85;5.15;;;;;;;;;;5107651;28;20040;-83
2022/03/01 08:39:35;;;;;;;15.05;5.78;;;;;;;;;;5106487;28;20039;-83
2022/03/01 08:42:05;;;;;;;14.07;4.65;;;;;;;;;;5106975;28;20047;-84
2022/03/01 08:44:31;;;;;;;12.38;5.70;;;;;;;;;;5114947;28;20104;-83
2022/03/01 08:46:58;;;;;;;8.38;4.88;;;;;;;;;;5111065;27;20044;-83
2022/03/01 08:49:24;;;;;;;11.98;5.18;;;;;;;;;;5102483;28;20051;-84
2022/03/01 08:51:52;;;;;;;10.85;5.72;;;;;;;;;;5116713;28;20051;-84
2022/03/01 08:54:19;;;;;;;8.52;4.85;;;;;;;;;;5115004;28;20044;-84
2022/03/01 08:56:46;;;;;;;12.02;5.20;;;;;;;;;;5105092;28;20044;-84
2022/03/01 08:59:12;;;;;;;10.38;5.80;;;;;;;;;;5113886;28;20047;-82
2022/03/01 09:01:39;;;;;;;11.85;6.65;;;;;;;;;;5109892;28;20068;-84
2022/03/01 09:04:05;;;;;;;11.50;5.65;;;;;;;;;;5113810;28;20164;-84
2022/03/01 09:06:32;;;;;;;11.43;6.20;;;;;;;;;;5100430;28;20105;-84
2022/03/01 09:09:00;;;;;;;10.57;6.50;;;;;;;;;;5110923;28;20044;-82
2022/03/01 09:11:27;;;;;;;12.07;5.60;;;;;;;;;;5105481;28;20140;-84
2022/03/01 09:13:54;;;;;;;9.35;5.80;;;;;;;;;;5114024;28;20456;-82
2022/03/01 09:16:20;;;;;;;13.10;6.95;;;;;;;;;;5107134;28;20066;-82
2022/03/01 09:18:47;;;;;;;9.77;5.35;;;;;;;;;;5114107;28;20063;-84
2022/03/01 09:21:13;;;;;;;9.95;5.85;;;;;;;;;;5103881;28;20048;-82
2022/03/01 09:23:40;;;;;;;13.77;5.85;;;;;;;;;;5114082;28;20059;-84
2022/03/01 09:26:08;;;;;;;24.35;6.88;;;;;;;;;;5113650;28;20051;-82
2022/03/01 09:28:35;;;;;;;19.63;6.57;;;;;;;;;;5112479;27;20048;-82
2022/03/01 09:31:02;;;;;;;8.73;5.38;;;;;;;;;;5115849;28;20096;-83
2022/03/01 09:33:28;;;;;;;15.32;6.55;;;;;;;;;;5109188;28;20051;-83
2022/03/01 09:35:55;;;;;;;17.05;6.72;;;;;;;;;;5110887;28;20469;-83
2022/03/01 09:38:24;;;;;;;12.73;5.72;;;;;;;;;;5114714;28;20063;-83
2022/03/01 09:40:51;;;;;;;13.90;6.68;;;;;;;;;;5105476;27;20059;-83
2022/03/01 09:43:20;;;;;;;17.95;6.20;;;;;;;;;;5107560;28;20075;-83
2022/03/01 09:45:47;;;;;;;13.52;5.80;;;;;;;;;;5103053;28;20052;-83
2022/03/01 09:48:13;;;;;;;10.43;6.28;;;;;;;;;;5104357;28;20540;-83
2022/03/01 09:50:40;;;;;;;11.02;5.93;;;;;;;;;;5106115;28;20055;-83
2022/03/01 09:53:07;;;;;;;10.98;5.40;;;;;;;;;;5103475;28;20459;-83
2022/03/01 09:55:34;;;;;;;12.63;6.82;;;;;;;;;;5116076;28;20097;-83
2022/03/01 09:58:00;;;;;;;11.43;5.80;;;;;;;;;;5108578;28;20047;-83
2022/03/01 10:00:28;;;;;;;9.63;4.97;;;;;;;;;;5114248;28;20069;-83
2022/03/01 10:02:56;;;;;;;8.20;5.22;;;;;;;;;;5101749;27;20048;-83
2022/03/01 10:05:33;;;;;;;12.20;6.63;;;;;;;;;;5102204;28;20133;-83
2022/03/01 10:08:07;;;;;;;10.23;5.57;;;;;;;;;;5108635;28;20755;-83
2022/03/01 10:10:37;;;;;;;10.38;6.00;;;;;;;;;;5116929;28;20097;-83
2022/03/01 10:13:04;;;;;;;10.75;5.78;;;;;;;;;;5106265;28;20451;-83
2022/03/01 10:15:32;;;;;;;11.35;6.15;;;;;;;;;;5112836;28;20386;-83
2022/03/01 10:18:00;;;;;;;11.32;6.25;;;;;;;;;;5101556;27;20390;-83
2022/03/01 10:20:26;;;;;;;10.70;6.13;;;;;;;;;;5113573;28;20043;-83
2022/03/01 10:22:54;;;;;;;11.57;6.63;;;;;;;;;;5100403;28;20047;-83
2022/03/01 10:25:24;;;;;;;11.20;6.18;;;;;;;;;;5112701;28;20065;-82
2022/03/01 10:27:52;;;;;;;11.48;6.38;;;;;;;;;;5099091;28;20040;-85
2022/03/01 10:30:24;;;;;;;10.95;6.22;;;;;;;;;;5112863;28;20056;-83
2022/03/01 10:32:52;;;;;;;9.63;6.00;;;;;;;;;;5096350;28;20044;-83
2022/03/01 10:35:19;;;;;;;12.93;6.18;;;;;;;;;;5104658;28;20553;-83
2022/03/01 10:37:50;;;;;;;10.98;6.90;;;;;;;;;;5099135;28;20079;-83
2022/03/01 10:40:20;;;;;;;11.65;5.50;;;;;;;;;;5096173;28;20308;-83
2022/03/01 10:42:59;;;;;;;9.13;5.75;;;;;;;;;;5111863;27;20108;-83
2022/03/01 10:45:31;;;;;;;12.70;6.25;;;;;;;;;;5100372;28;20083;-82
2022/03/01 10:47:59;;;;;;;11.95;6.13;;;;;;;;;;5103099;28;20087;-83
2022/03/01 10:50:26;;;;;;;10.93;6.63;;;;;;;;;;5102509;28;20052;-83
2022/03/01 10:52:52;;;;;;;8.50;5.32;;;;;;;;;;5100612;28;20052;-83
2022/03/01 10:55:26;;;;;;;8.40;5.72;;;;;;;;;;5106873;28;20072;-84
2022/03/01 10:58:00;;;;;;;13.02;5.57;;;;;;;;;;5098331;28;20044;-83
2022/03/01 11:00:27;;;;;;;11.95;5.88;;;;;;;;;;5106805;28;20418;-83
2022/03/01 11:02:54;;;;;;;8.77;5.75;;;;;;;;;;5098034;28;20079;-83
2022/03/01 11:05:22;;;;;;;10.00;6.43;;;;;;;;;;5108065;27;20051;-83
2022/03/01 11:07:50;;;;;;;12.68;7.05;;;;;;;;;;5099293;28;20443;-83
2022/03/01 11:10:18;;;;;;;10.60;6.53;;;;;;;;;;5102378;28;20056;-82
2022/03/01 11:12:47;;;;;;;13.27;6.30;;;;;;;;;;5110667;28;20040;-83
2022/03/01 11:15:21;;;;;;;8.57;4.90;;;;;;;;;;5114762;28;20055;-83
2022/03/01 11:17:52;;;;;;;13.20;6.03;;;;;;;;;;5105199;28;20505;-83
2022/03/01 11:20:23;;;;;;;9.43;5.75;;;;;;;;;;5106965;27;20513;-83
2022/03/01 11:22:55;;;;;;;12.88;5.88;;;;;;;;;;5108818;28;20425;-83
2022/03/01 11:25:23;;;;;;;9.50;5.32;;;;;;;;;;5104925;28;20051;-83
2022/03/01 11:27:52;;;;;;;14.50;7.88;;;;;;;;;;5098575;28;20048;-83
2022/03/01 11:30:30;;;;;;;11.57;6.75;;;;;;;;;;5103948;28;20491;-83
2022/03/01 11:32:57;;;;;;;10.52;6.40;;;;;;;;;;5104554;28;20147;-84
2022/03/01 11:35:27;;;;;;;11.18;6.10;;;;;;;;;;5100090;28;20066;-84
2022/03/01 11:38:02;;;;;;;12.20;6.28;;;;;;;;;;5105087;28;20044;-83
2022/03/01 11:40:31;;;;;;;10.07;5.63;;;;;;;;;;5103527;28;20174;-84
2022/03/01 11:43:07;;;;;;;16.55;8.27;;;;;;;;;;5109876;28;20435;-83
2022/03/01 11:45:35;;;;;;;9.98;6.68;;;;;;;;;;5105180;28;20067;-84
2022/03/01 11:48:06;;;;;;;12.88;6.40;;;;;;;;;;5105280;28;20049;-84
2022/03/01 11:50:34;;;;;;;11.55;6.00;;;;;;;;;;5102011;28;20082;-84
2022/03/01 11:53:04;;;;;;;12.60;7.35;;;;;;;;;;5112492;28;20778;-83
2022/03/01 11:55:36;;;;;;;9.73;6.00;;;;;;;;;;5101627;28;20043;-84
2022/03/01 11:58:03;;;;;;;10.50;5.47;;;;;;;;;;5101847;28;20072;-84
2022/03/01 12:00:30;;;;;;;8.75;5.53;;;;;;;;;;5108857;28;20048;-83
2022/03/01 12:02:59;;;;;;;10.23;5.57;;;;;;;;;;5112585;28;20140;-84
2022/03/01 12:05:26;;;;;;;10.25;5.32;;;;;;;;;;5118059;28;20139;-85
2022/03/01 12:07:55;;;;;;;13.45;6.90;;;;;;;;;;5103352;28;20097;-84
2022/03/01 12:10:23;;;;;;;10.38;5.68;;;;;;;;;;5103763;28;20090;-84
2022/03/01 12:12:51;;;;;;;8.15;4.95;;;;;;;;;;5101023;28;20052;-85
2022/03/01 12:15:27;;;;;;;10.93;5.88;;;;;;;;;;5099363;28;20052;-84
2022/03/01 12:17:54;;;;;;;13.77;7.22;;;;;;;;;;5103512;28;20051;-84
2022/03/01 12:20:22;;;;;;;9.70;5.75;;;;;;;;;;5099103;28;20051;-84
2022/03/01 12:22:58;;;;;;;11.02;6.80;;;;;;;;;;5104645;28;20074;-84
2022/03/01 12:25:25;;;;;;;9.60;6.22;;;;;;;;;;5104632;28;20088;-84
2022/03/01 12:27:52;;;;;;;8.57;5.22;;;;;;;;;;5103608;28;20032;-84
2022/03/01 12:30:21;;;;;;;10.02;5.93;;;;;;;;;;5102998;28;20104;-84
2022/03/01 12:32:54;;;;;;;10.77;5.82;;;;;;;;;;5101817;28;20040;-84
2022/03/01 12:35:21;;;;;;;8.32;5.68;;;;;;;;;;5103154;28;20570;-84
2022/03/01 12:37:50;;;;;;;8.15;4.57;;;;;;;;;;5099750;28;20040;-84
2022/03/01 12:40:27;;;;;;;8.25;4.65;;;;;;;;;;5105179;28;20046;-84
2022/03/01 12:43:00;;;;;;;12.05;5.80;;;;;;;;;;5098456;28;20056;-84
2022/03/01 12:45:31;;;;;;;12.77;5.40;;;;;;;;;;5104313;28;20044;-84
2022/03/01 12:47:57;;;;;;;9.52;4.82;;;;;;;;;;5101746;28;20460;-84
2022/03/01 12:50:24;;;;;;;11.23;6.70;;;;;;;;;;5101451;28;20404;-84
2022/03/01 12:52:55;;;;;;;9.52;4.70;;;;;;;;;;5102738;28;20075;-84
2022/03/01 12:55:22;;;;;;;8.73;5.18;;;;;;;;;;5101847;28;20047;-84
2022/03/01 12:57:51;;;;;;;10.52;5.10;;;;;;;;;;5100075;28;20044;-84
2022/03/01 13:00:18;;;;;;;8.80;5.03;;;;;;;;;;5100617;28;20072;-84
2022/03/01 13:02:53;;;;;;;8.55;5.70;;;;;;;;;;5101594;28;20105;-84
2022/03/01 13:05:28;;;;;;;10.52;5.93;;;;;;;;;;5103668;28;20060;-84
2022/03/01 13:07:55;;;;;;;9.02;5.10;;;;;;;;;;5100265;28;20101;-84
2022/03/01 13:10:32;;;;;;;8.43;4.75;;;;;;;;;;5104986;28;20112;-84
2022/03/01 13:13:00;;;;;;;11.90;5.85;;;;;;;;;;5105346;28;20090;-83
2022/03/01 13:15:28;;;;;;;6.65;4.50;;;;;;;;;;5112653;28;20533;-84
2022/03/01 13:17:56;;;;;;;8.15;5.55;;;;;;;;;;5107554;28;20482;-83
2022/03/01 13:20:23;;;;;;;10.18;5.10;;;;;;;;;;5102834;28;20048;-84
2022/03/01 13:23:04;;;;;;;7.93;4.75;;;;;;;;;;5105059;28;20075;-83
2022/03/01 13:25:33;;;;;;;8.70;4.95;;;;;;;;;;5107574;28;20124;-83
2022/03/01 13:28:01;;;;;;;8.88;5.60;;;;;;;;;;5102386;28;20497;-83
2022/03/01 13:30:29;;;;;;;9.02;5.05;;;;;;;;;;5106599;28;20072;-84
2022/03/01 13:33:07;;;;;;;9.77;5.18;;;;;;;;;;5107860;28;20388;-84
2022/03/01 13:35:42;;;;;;;6.85;4.30;;;;;;;;;;5103271;28;20124;-84
2022/03/01 13:38:10;;;;;;;10.63;6.03;;;;;;;;;;5109516;28;20553;-86
2022/03/01 13:40:43;;;;;;;9.77;5.32;;;;;;;;;;5105379;27;20093;-87
2022/03/01 13:43:13;;;;;;;8.43;4.70;;;;;;;;;;5102519;27;20514;-86
2022/03/01 13:45:41;;;;;;;7.25;4.43;;;;;;;;;;5101459;28;20044;-86
2022/03/01 13:48:09;;;;;;;6.75;3.80;;;;;;;;;;5101266;28;20130;-86
2022/03/01 13:50:36;;;;;;;7.60;4.85;;;;;;;;;;5107908;28;20067;-86
2022/03/01 13:53:09;;;;;;;10.20;5.53;;;;;;;;;;5106304;27;20064;-85
2022/03/01 13:55:37;;;;;;;7.07;4.32;;;;;;;;;;5096386;28;20075;-85
2022/03/01 13:58:04;;;;;;;8.32;4.55;;;;;;;;;;5096574;28;20075;-86
2022/03/01 14:03:32;;;;;;;7.65;4.68;;;;;;;;;;5104173;28;20100;-84
2022/03/01 14:06:00;;;;;;;8.02;4.88;;;;;;;;;;5101217;28;20051;-83
2022/03/01 14:08:28;;;;;;;7.20;3.55;;;;;;;;;;5102447;28;20055;-83
2022/03/01 14:10:56;;;;;;;8.10;4.57;;;;;;;;;;5105762;28;20039;-84
2022/03/01 14:13:25;;;;;;;8.73;4.40;;;;;;;;;;5104442;28;20068;-84
2022/03/01 14:16:04;;;;;;;5.97;4.22;;;;;;;;;;5102926;27;20127;-84
2022/03/01 14:18:35;;;;;;;7.38;4.32;;;;;;;;;;5105921;27;20052;-84
2022/03/01 14:21:01;;;;;;;7.05;4.47;;;;;;;;;;5100589;28;20071;-85
2022/03/01 14:23:31;;;;;;;8.95;4.97;;;;;;;;;;5104993;28;20482;-84
2022/03/01 14:25:58;;;;;;;9.35;5.18;;;;;;;;;;5098775;28;21487;-84
2022/03/01 14:28:25;;;;;;;6.63;4.60;;;;;;;;;;5103543;28;20040;-84
2022/03/01 14:30:53;;;;;;;6.85;4.20;;;;;;;;;;5096366;28;20094;-84
2022/03/01 14:33:20;;;;;;;7.50;4.00;;;;;;;;;;5103386;27;20138;-84
2022/03/01 14:35:46;;;;;;;6.72;4.20;;;;;;;;;;5101953;28;20101;-84
2022/03/01 14:38:13;;;;;;;6.13;3.83;;;;;;;;;;5103134;28;20067;-84
2022/03/01 14:40:39;;;;;;;7.38;4.30;;;;;;;;;;5108236;28;20973;-84